Rose Tree, Pennsylvania
Current Conditions -  °F | °C
As of 11:54 AM on Thursday 18 Dec 2014 (Local Time) from KPHL Reporting Station
Overcast Overcast  
Wind Chill: 29°   Ceiling: 3800
Heat Index: 38°   Visibility: 10mi
Dew Point: 22°   Wind: 16mph
Humidity: 53%   Direction: 280°W
Pressure: 30.08"   Gusts: 24mph
Location:  39.9207°N, 75.4181°W
Report Text: KPHL 181654Z 28014G21KT 10SM OVC038 03/M06 A3008 RMK AO2 SLP184 T00331056
Loading
Personal Weather Stations






























Interactive Weather Map New forecast layout! Learn more

10-Day Weather Forecast

Advertisements
Track Severe Weather on mobile